Time;durP1;ratioP1;P1;durP2;ratioP2;P2;SDS_P1;SDS_P2;PMS_P1;PMS_P2;Temp;Humidity;BMP_temperature;BMP_pressure;BME280_temperature;BME280_humidity;BME280_pressure;Samples;Min_cycle;Max_cycle;Signal;HPM_P1;HPM_P2
2022/05/16 00:00:17;;;;;;;;;;;;;;;;;;5035370;28;20003;-71
2022/05/16 00:02:43;;;;;;;;;;;;;;;;;;5035838;28;19932;-71
2022/05/16 00:05:08;;;;;;;;;;;;;;;;;;5035682;28;19909;-71
2022/05/16 00:07:34;;;;;;;;;;;;;;;;;;5035546;28;19916;-71
2022/05/16 00:10:00;;;;;;;;;;;;;;;;;;5035239;28;19909;-70
2022/05/16 00:12:26;;;;;;;;;;;;;;;;;;5035767;28;20308;-71
2022/05/16 00:14:52;;;;;;;;;;;;;;;;;;5035668;28;19909;-70
2022/05/16 00:17:18;;;;;;;;;;;;;;;;;;5035492;28;19916;-71
2022/05/16 00:19:44;;;;;;;;;;;;;;;;;;5035025;28;19913;-71
2022/05/16 00:22:10;;;;;;;;;;;;;;;;;;5035450;28;19916;-71
2022/05/16 00:24:36;;;;;;;;;;;;;;;;;;5035370;28;19952;-70
2022/05/16 00:27:02;;;;;;;;;;;;;;;;;;5035397;28;19909;-70
2022/05/16 00:29:28;;;;;;;;;;;;;;;;;;5034775;28;19924;-70
2022/05/16 00:31:54;;;;;;;;;;;;;;;;;;5035252;28;20007;-70
2022/05/16 00:34:20;;;;;;;;;;;;;;;;;;5035336;28;19963;-70
2022/05/16 00:36:49;;;;;;;;;;;;;;;;;;5035165;28;19913;-70
2022/05/16 00:39:15;;;;;;;;;;;;;;;;;;5034447;28;19916;-69
2022/05/16 00:41:41;;;;;;;;;;;;;;;;;;5035096;28;19909;-68
2022/05/16 00:44:07;;;;;;;;;;;;;;;;;;5035099;28;19909;-68
2022/05/16 00:46:33;;;;;;;;;;;;;;;;;;5035005;28;20350;-68
2022/05/16 00:48:58;;;;;;;;;;;;;;;;;;5034235;28;19967;-67
2022/05/16 00:51:24;;;;;;;;;;;;;;;;;;5034842;28;19909;-68
2022/05/16 00:53:50;;;;;;;;;;;;;;;;;;5034892;28;20317;-68
2022/05/16 00:56:16;;;;;;;;;;;;;;;;;;5034895;28;19913;-69
2022/05/16 00:58:42;;;;;;;;;;;;;;;;;;5034201;28;19909;-69
2022/05/16 01:04:47;;;;;;;;;;;;;;;;;;5034851;28;19932;-69
2022/05/16 01:06:38;;;;;;;;;;;;;;;;;;5035856;28;19920;-69
2022/05/16 01:09:04;;;;;;;;;;;;;;;;;;5034195;28;19913;-69
2022/05/16 01:11:30;;;;;;;;;;;;;;;;;;5034709;28;19909;-69
2022/05/16 01:13:56;;;;;;;;;;;;;;;;;;5034576;28;19920;-68
2022/05/16 01:16:22;;;;;;;;;;;;;;;;;;5034569;28;20250;-69
2022/05/16 01:18:48;;;;;;;;;;;;;;;;;;5033683;28;19916;-69
2022/05/16 01:21:14;;;;;;;;;;;;;;;;;;5034420;28;19909;-69
2022/05/16 01:23:40;;;;;;;;;;;;;;;;;;5034235;28;19996;-70
2022/05/16 01:26:06;;;;;;;;;;;;;;;;;;5034246;28;19909;-72
2022/05/16 01:28:32;;;;;;;;;;;;;;;;;;5033390;28;20023;-70
2022/05/16 01:30:57;;;;;;;;;;;;;;;;;;5034014;28;19915;-70
2022/05/16 01:33:23;;;;;;;;;;;;;;;;;;5034002;28;19920;-70
2022/05/16 01:35:49;;;;;;;;;;;;;;;;;;5034015;28;19924;-69
2022/05/16 01:38:18;;;;;;;;;;;;;;;;;;5033958;28;19910;-72
2022/05/16 01:40:44;;;;;;;;;;;;;;;;;;5033594;28;19909;-70
2022/05/16 01:43:10;;;;;;;;;;;;;;;;;;5034018;28;19913;-69
2022/05/16 01:45:36;;;;;;;;;;;;;;;;;;5033764;28;20305;-69
2022/05/16 01:48:02;;;;;;;;;;;;;;;;;;5034998;28;20307;-69
2022/05/16 01:50:28;;;;;;;;;;;;;;;;;;5032786;28;20003;-69
2022/05/16 01:52:54;;;;;;;;;;;;;;;;;;5033582;28;20031;-69
2022/05/16 01:55:19;;;;;;;;;;;;;;;;;;5033807;28;19916;-69
2022/05/16 01:57:45;;;;;;;;;;;;;;;;;;5033545;28;19932;-69
2022/05/16 02:00:11;;;;;;;;;;;;;;;;;;5033306;28;19909;-69
2022/05/16 02:02:39;;;;;;;;;;;;;;;;;;5033508;28;19913;-69
2022/05/16 02:05:05;;;;;;;;;;;;;;;;;;5033478;28;19909;-68
2022/05/16 02:07:31;;;;;;;;;;;;;;;;;;5033376;28;19936;-69
2022/05/16 02:09:57;;;;;;;;;;;;;;;;;;5032797;28;19909;-68
2022/05/16 02:12:23;;;;;;;;;;;;;;;;;;5033303;28;19920;-69
2022/05/16 02:14:48;;;;;;;;;;;;;;;;;;5033261;28;19910;-68
2022/05/16 02:17:14;;;;;;;;;;;;;;;;;;5033286;28;19905;-69
2022/05/16 02:19:40;;;;;;;;;;;;;;;;;;5032693;28;20327;-69
2022/05/16 02:24:51;;;;;;;;;;;;;;;;;;5034426;28;19916;-69
2022/05/16 02:27:17;;;;;;;;;;;;;;;;;;5033103;28;19910;-69
2022/05/16 02:29:43;;;;;;;;;;;;;;;;;;5032520;28;20354;-69
2022/05/16 02:32:10;;;;;;;;;;;;;;;;;;5032994;28;19917;-70
2022/05/16 02:34:36;;;;;;;;;;;;;;;;;;5032954;28;19962;-68
2022/05/16 02:37:02;;;;;;;;;;;;;;;;;;5032905;28;20003;-68
2022/05/16 02:39:28;;;;;;;;;;;;;;;;;;5032465;28;19909;-68
2022/05/16 02:41:54;;;;;;;;;;;;;;;;;;5032889;28;19916;-68
2022/05/16 02:44:21;;;;;;;;;;;;;;;;;;5032962;28;19915;-68
2022/05/16 02:46:47;;;;;;;;;;;;;;;;;;5032781;28;19959;-68
2022/05/16 02:49:12;;;;;;;;;;;;;;;;;;5032373;28;19994;-69
2022/05/16 02:51:38;;;;;;;;;;;;;;;;;;5032697;28;20245;-69
2022/05/16 02:54:04;;;;;;;;;;;;;;;;;;5032693;28;20000;-69
2022/05/16 02:56:30;;;;;;;;;;;;;;;;;;5032691;28;20392;-69
2022/05/16 02:58:56;;;;;;;;;;;;;;;;;;5032129;28;19917;-69
2022/05/16 03:01:22;;;;;;;;;;;;;;;;;;5032507;28;19909;-69
2022/05/16 03:03:48;;;;;;;;;;;;;;;;;;5031767;28;19909;-69
2022/05/16 03:06:14;;;;;;;;;;;;;;;;;;5032568;28;20313;-69
2022/05/16 03:08:40;;;;;;;;;;;;;;;;;;5032011;28;19909;-69
2022/05/16 03:11:06;;;;;;;;;;;;;;;;;;5032538;28;19963;-70
2022/05/16 03:13:32;;;;;;;;;;;;;;;;;;5032421;28;19920;-69
2022/05/16 03:15:58;;;;;;;;;;;;;;;;;;5032661;28;20259;-72
2022/05/16 03:18:24;;;;;;;;;;;;;;;;;;5032160;28;19995;-71
2022/05/16 03:20:50;;;;;;;;;;;;;;;;;;5032430;28;19909;-70
2022/05/16 03:23:16;;;;;;;;;;;;;;;;;;5032559;28;19909;-70
2022/05/16 03:25:42;;;;;;;;;;;;;;;;;;5032534;28;20351;-70
2022/05/16 03:28:07;;;;;;;;;;;;;;;;;;5032230;28;19944;-70
2022/05/16 03:30:33;;;;;;;;;;;;;;;;;;5031969;28;20380;-70
2022/05/16 03:33:00;;;;;;;;;;;;;;;;;;5032233;28;20007;-70
2022/05/16 03:35:26;;;;;;;;;;;;;;;;;;5032433;28;20282;-69
2022/05/16 03:37:52;;;;;;;;;;;;;;;;;;5032175;28;19905;-71
2022/05/16 03:43:02;;;;;;;;;;;;;;;;;;5033079;28;19959;-71
2022/05/16 03:45:28;;;;;;;;;;;;;;;;;;5032168;28;19913;-71
2022/05/16 03:47:54;;;;;;;;;;;;;;;;;;5032116;28;20371;-71
2022/05/16 03:50:20;;;;;;;;;;;;;;;;;;5031551;28;19919;-71
2022/05/16 03:52:46;;;;;;;;;;;;;;;;;;5032076;28;20316;-71
2022/05/16 03:55:13;;;;;;;;;;;;;;;;;;5032213;28;19909;-71
2022/05/16 03:57:39;;;;;;;;;;;;;;;;;;5032098;28;20360;-71
2022/05/16 04:00:05;;;;;;;;;;;;;;;;;;5032890;28;19909;-71
2022/05/16 04:02:35;;;;;;;;;;;;;;;;;;5032131;28;20343;-71
2022/05/16 04:05:01;;;;;;;;;;;;;;;;;;5031950;28;19909;-71
2022/05/16 04:07:27;;;;;;;;;;;;;;;;;;5031846;28;19928;-71
2022/05/16 04:09:53;;;;;;;;;;;;;;;;;;5031502;28;20397;-71
2022/05/16 04:12:19;;;;;;;;;;;;;;;;;;5032046;28;19960;-71
2022/05/16 04:14:45;;;;;;;;;;;;;;;;;;5035844;28;20333;-71
2022/05/16 04:17:11;;;;;;;;;;;;;;;;;;5035601;28;20286;-71
2022/05/16 04:19:37;;;;;;;;;;;;;;;;;;5034818;28;20358;-71
2022/05/16 04:22:03;;;;;;;;;;;;;;;;;;5035681;28;19964;-71
2022/05/16 04:24:29;;;;;;;;;;;;;;;;;;5035567;28;20346;-71
2022/05/16 04:26:55;;;;;;;;;;;;;;;;;;5035362;28;19909;-72
2022/05/16 04:29:20;;;;;;;;;;;;;;;;;;5034858;28;19917;-72
2022/05/16 04:31:46;;;;;;;;;;;;;;;;;;5035196;28;20325;-72
2022/05/16 04:34:12;;;;;;;;;;;;;;;;;;5035430;28;20413;-71
2022/05/16 04:36:39;;;;;;;;;;;;;;;;;;5035136;28;19910;-72
2022/05/16 04:39:05;;;;;;;;;;;;;;;;;;5034607;28;19917;-70
2022/05/16 04:44:15;;;;;;;;;;;;;;;;;;5036530;28;19962;-70
2022/05/16 04:46:41;;;;;;;;;;;;;;;;;;5035086;28;20003;-70
2022/05/16 04:49:07;;;;;;;;;;;;;;;;;;5034334;28;20498;-70
2022/05/16 04:51:33;;;;;;;;;;;;;;;;;;5034911;28;19909;-70
2022/05/16 04:53:59;;;;;;;;;;;;;;;;;;5034761;28;19909;-72
2022/05/16 04:56:25;;;;;;;;;;;;;;;;;;5034877;28;19913;-72
2022/05/16 04:58:51;;;;;;;;;;;;;;;;;;5034218;28;20008;-70
2022/05/16 05:01:16;;;;;;;;;;;;;;;;;;5034749;28;19910;-70
2022/05/16 05:03:42;;;;;;;;;;;;;;;;;;5034689;28;19916;-71
2022/05/16 05:06:08;;;;;;;;;;;;;;;;;;5034718;28;20362;-71
2022/05/16 05:08:34;;;;;;;;;;;;;;;;;;5034122;28;20350;-72
2022/05/16 05:16:43;;;;;;;;;;;;;;;;;;5012827;28;19909;-73
2022/05/16 05:19:09;;;;;;;;;;;;;;;;;;5033813;28;20385;-72
2022/05/16 05:21:35;;;;;;;;;;;;;;;;;;5034402;28;19909;-72
2022/05/16 05:24:01;;;;;;;;;;;;;;;;;;5034326;28;20350;-75
2022/05/16 05:26:27;;;;;;;;;;;;;;;;;;5033305;28;20003;-73
2022/05/16 05:28:53;;;;;;;;;;;;;;;;;;5033439;28;19924;-73
2022/05/16 05:31:20;;;;;;;;;;;;;;;;;;5034346;28;19909;-77
2022/05/16 05:33:46;;;;;;;;;;;;;;;;;;5034034;28;20011;-72
2022/05/16 05:36:12;;;;;;;;;;;;;;;;;;5034202;28;20059;-73
2022/05/16 05:38:38;;;;;;;;;;;;;;;;;;5033467;28;19909;-73
2022/05/16 05:41:04;;;;;;;;;;;;;;;;;;5033871;28;19916;-73
2022/05/16 05:43:30;;;;;;;;;;;;;;;;;;5033918;28;19909;-73
2022/05/16 05:45:56;;;;;;;;;;;;;;;;;;5033690;28;20270;-73
2022/05/16 05:48:21;;;;;;;;;;;;;;;;;;5033476;28;19920;-73
2022/05/16 05:50:47;;;;;;;;;;;;;;;;;;5033384;28;19909;-73
2022/05/16 05:53:13;;;;;;;;;;;;;;;;;;5035021;28;19913;-74
2022/05/16 05:55:40;;;;;;;;;;;;;;;;;;5033654;28;20301;-69
2022/05/16 05:58:06;;;;;;;;;;;;;;;;;;5033634;28;19991;-71
2022/05/16 06:00:32;;;;;;;;;;;;;;;;;;5033232;28;19909;-73
2022/05/16 06:03:00;;;;;;;;;;;;;;;;;;5033424;28;20376;-71
2022/05/16 06:05:26;;;;;;;;;;;;;;;;;;5033487;28;19960;-72
2022/05/16 06:07:52;;;;;;;;;;;;;;;;;;5033314;28;19905;-73
2022/05/16 06:10:18;;;;;;;;;;;;;;;;;;5033090;28;20414;-70
2022/05/16 06:12:44;;;;;;;;;;;;;;;;;;5033241;28;19913;-73
2022/05/16 06:15:10;;;;;;;;;;;;;;;;;;5032819;28;19960;-73
2022/05/16 06:17:36;;;;;;;;;;;;;;;;;;5033187;28;19916;-72
2022/05/16 06:20:02;;;;;;;;;;;;;;;;;;5032713;28;19920;-73
2022/05/16 06:22:34;;;;;;;;;;;;;;;;;;5033579;28;20315;-72
2022/05/16 06:27:44;;;;;;;;;;;;;;;;;;5034262;28;20309;-72
2022/05/16 06:30:11;;;;;;;;;;;;;;;;;;5032697;28;19913;-71
2022/05/16 06:32:36;;;;;;;;;;;;;;;;;;5033016;28;19967;-72
2022/05/16 06:35:02;;;;;;;;;;;;;;;;;;5032856;28;19913;-72
2022/05/16 06:37:28;;;;;;;;;;;;;;;;;;5032698;28;19913;-72
2022/05/16 06:39:54;;;;;;;;;;;;;;;;;;5032420;28;20008;-72
2022/05/16 06:42:20;;;;;;;;;;;;;;;;;;5032702;28;19913;-73
2022/05/16 06:44:46;;;;;;;;;;;;;;;;;;5032619;28;19912;-72
2022/05/16 06:47:12;;;;;;;;;;;;;;;;;;5032485;28;19909;-72
2022/05/16 06:49:38;;;;;;;;;;;;;;;;;;5032165;28;20380;-73
2022/05/16 06:52:04;;;;;;;;;;;;;;;;;;5044487;28;19916;-73
2022/05/16 06:54:30;;;;;;;;;;;;;;;;;;5052545;28;19908;-73
2022/05/16 06:56:56;;;;;;;;;;;;;;;;;;5051478;28;19917;-74
2022/05/16 06:59:22;;;;;;;;;;;;;;;;;;5050909;28;20043;-73
2022/05/16 07:01:48;;;;;;;;;;;;;;;;;;5050933;28;20347;-74
2022/05/16 07:04:14;;;;;;;;;;;;;;;;;;5051276;28;19909;-74
2022/05/16 07:06:40;;;;;;;;;;;;;;;;;;5051331;28;19913;-74
2022/05/16 07:09:05;;;;;;;;;;;;;;;;;;5050760;28;19912;-74
2022/05/16 07:11:32;;;;;;;;;;;;;;;;;;5051297;28;19909;-72
2022/05/16 07:13:58;;;;;;;;;;;;;;;;;;5050846;28;19939;-73
2022/05/16 07:16:24;;;;;;;;;;;;;;;;;;5050172;28;20396;-73
2022/05/16 07:18:50;;;;;;;;;;;;;;;;;;5050692;28;19912;-73
2022/05/16 07:21:16;;;;;;;;;;;;;;;;;;5051152;28;20035;-73
2022/05/16 07:23:42;;;;;;;;;;;;;;;;;;5051050;28;20601;-73
2022/05/16 07:28:52;;;;;;;;;;;;;;;;;;5051753;28;19942;-71
2022/05/16 07:31:18;;;;;;;;;;;;;;;;;;5051056;28;20357;-71
2022/05/16 07:33:44;;;;;;;;;;;;;;;;;;5051765;28;19920;-71
2022/05/16 07:36:10;;;;;;;;;;;;;;;;;;5052126;28;20388;-71
2022/05/16 07:38:36;;;;;;;;;;;;;;;;;;5051826;28;19909;-71
2022/05/16 07:41:02;;;;;;;;;;;;;;;;;;5052079;28;19908;-71
2022/05/16 07:43:28;;;;;;;;;;;;;;;;;;5052126;28;20237;-71
2022/05/16 07:45:54;;;;;;;;;;;;;;;;;;5052088;28;19952;-71
2022/05/16 07:48:20;;;;;;;;;;;;;;;;;;5053603;28;21256;-71
2022/05/16 07:50:45;;;;;;;;;;;;;;;;;;5055770;28;19909;-71
2022/05/16 07:53:12;;;;;;;;;;;;;;;;;;5057109;28;19936;-72
2022/05/16 07:55:37;;;;;;;;;;;;;;;;;;5055942;28;19998;-72
2022/05/16 07:58:03;;;;;;;;;;;;;;;;;;5055706;28;19949;-71
2022/05/16 08:00:29;;;;;;;;;;;;;;;;;;5055347;28;20338;-71
2022/05/16 08:02:56;;;;;;;;;;;;;;;;;;5055724;28;19908;-71
2022/05/16 08:05:22;;;;;;;;;;;;;;;;;;5055862;28;19963;-70
2022/05/16 08:10:32;;;;;;;;;;;;;;;;;;5056645;28;20475;-70
2022/05/16 08:12:58;;;;;;;;;;;;;;;;;;5056899;28;19935;-70
2022/05/16 08:15:25;;;;;;;;;;;;;;;;;;5055789;28;19912;-70
2022/05/16 08:17:51;;;;;;;;;;;;;;;;;;5055507;28;19909;-71
2022/05/16 08:20:17;;;;;;;;;;;;;;;;;;5054980;28;20266;-71
2022/05/16 08:22:43;;;;;;;;;;;;;;;;;;5055212;28;19909;-71
2022/05/16 08:25:09;;;;;;;;;;;;;;;;;;5055317;28;19909;-69
2022/05/16 08:27:35;;;;;;;;;;;;;;;;;;5055088;28;20004;-71
2022/05/16 08:30:00;;;;;;;;;;;;;;;;;;5054583;28;20010;-72
2022/05/16 08:32:26;;;;;;;;;;;;;;;;;;5055292;28;19916;-69
2022/05/16 08:34:52;;;;;;;;;;;;;;;;;;5055020;28;19909;-71
2022/05/16 08:40:19;;;;;;;;;;;;;;;;;;5013757;28;19910;-70
2022/05/16 08:42:45;;;;;;;;;;;;;;;;;;5042182;28;19981;-72
2022/05/16 08:45:11;;;;;;;;;;;;;;;;;;5054886;28;20033;-71
2022/05/16 08:47:37;;;;;;;;;;;;;;;;;;5054733;28;19909;-73
2022/05/16 08:50:03;;;;;;;;;;;;;;;;;;5054404;28;19908;-72
2022/05/16 08:52:29;;;;;;;;;;;;;;;;;;5054548;28;20353;-72
2022/05/16 08:54:55;;;;;;;;;;;;;;;;;;5054679;28;19915;-72
2022/05/16 08:57:20;;;;;;;;;;;;;;;;;;5054601;28;20297;-69
2022/05/16 08:59:46;;;;;;;;;;;;;;;;;;5054065;28;20007;-73
2022/05/16 09:02:13;;;;;;;;;;;;;;;;;;5054693;28;19915;-72
2022/05/16 09:04:39;;;;;;;;;;;;;;;;;;5054519;28;20437;-71
2022/05/16 09:07:05;;;;;;;;;;;;;;;;;;5054370;28;20008;-72
2022/05/16 09:09:31;;;;;;;;;;;;;;;;;;5053982;28;19909;-73
2022/05/16 09:11:57;;;;;;;;;;;;;;;;;;5054246;28;19989;-72
2022/05/16 09:14:23;;;;;;;;;;;;;;;;;;5054449;28;19955;-70
2022/05/16 09:16:49;;;;;;;;;;;;;;;;;;5054222;28;19962;-71
2022/05/16 09:19:15;;;;;;;;;;;;;;;;;;5055005;28;20350;-73
2022/05/16 09:21:40;;;;;;;;;;;;;;;;;;5054345;28;19913;-72
2022/05/16 09:24:07;;;;;;;;;;;;;;;;;;5054158;28;19920;-71
2022/05/16 09:26:33;;;;;;;;;;;;;;;;;;5054140;28;19915;-71
2022/05/16 09:28:59;;;;;;;;;;;;;;;;;;5053326;28;19916;-72
2022/05/16 09:31:26;;;;;;;;;;;;;;;;;;5054001;28;19909;-72
2022/05/16 09:33:52;;;;;;;;;;;;;;;;;;5053864;28;20281;-73
2022/05/16 09:36:18;;;;;;;;;;;;;;;;;;5053893;28;19908;-74
2022/05/16 09:38:44;;;;;;;;;;;;;;;;;;5053292;28;20364;-73
2022/05/16 09:41:10;;;;;;;;;;;;;;;;;;5053751;28;19909;-75
2022/05/16 09:43:36;;;;;;;;;;;;;;;;;;5053688;28;19979;-75
2022/05/16 09:46:02;;;;;;;;;;;;;;;;;;5053819;28;19913;-71
2022/05/16 09:48:27;;;;;;;;;;;;;;;;;;5053214;28;19909;-72
2022/05/16 09:50:53;;;;;;;;;;;;;;;;;;5053633;28;20003;-71
2022/05/16 09:53:19;;;;;;;;;;;;;;;;;;5053571;28;19966;-72
2022/05/16 09:55:46;;;;;;;;;;;;;;;;;;5053472;28;19908;-73
2022/05/16 09:58:12;;;;;;;;;;;;;;;;;;5053463;28;19909;-74
2022/05/16 10:00:40;;;;;;;;;;;;;;;;;;5053157;28;19962;-72
2022/05/16 10:03:06;;;;;;;;;;;;;;;;;;5053548;28;20439;-73
2022/05/16 10:05:32;;;;;;;;;;;;;;;;;;5053184;28;19913;-72
2022/05/16 10:07:58;;;;;;;;;;;;;;;;;;5053258;28;19999;-74
2022/05/16 10:10:24;;;;;;;;;;;;;;;;;;5052808;28;20369;-72
2022/05/16 10:12:50;;;;;;;;;;;;;;;;;;5052558;28;19920;-75
2022/05/16 10:15:17;;;;;;;;;;;;;;;;;;5053243;28;19913;-71
2022/05/16 10:17:42;;;;;;;;;;;;;;;;;;5052961;28;20345;-73
2022/05/16 10:20:08;;;;;;;;;;;;;;;;;;5052646;28;19909;-72
2022/05/16 10:22:34;;;;;;;;;;;;;;;;;;5053231;28;19935;-71
2022/05/16 10:25:00;;;;;;;;;;;;;;;;;;5053079;28;19913;-74
2022/05/16 10:27:28;;;;;;;;;;;;;;;;;;5052747;28;19963;-73
2022/05/16 10:29:55;;;;;;;;;;;;;;;;;;5052506;28;19982;-72
2022/05/16 10:35:06;;;;;;;;;;;;;;;;;;5054116;28;19935;-74
2022/05/16 10:37:32;;;;;;;;;;;;;;;;;;5052835;28;19909;-73
2022/05/16 10:39:58;;;;;;;;;;;;;;;;;;5052347;28;19915;-72
2022/05/16 10:42:24;;;;;;;;;;;;;;;;;;5052965;28;20273;-71
2022/05/16 10:44:50;;;;;;;;;;;;;;;;;;5052786;28;20333;-72
2022/05/16 10:47:16;;;;;;;;;;;;;;;;;;5052524;28;19916;-72
2022/05/16 10:49:42;;;;;;;;;;;;;;;;;;5053407;28;19920;-73
2022/05/16 10:52:08;;;;;;;;;;;;;;;;;;5052669;28;20341;-73
2022/05/16 10:54:33;;;;;;;;;;;;;;;;;;5052608;28;19951;-73
2022/05/16 10:56:59;;;;;;;;;;;;;;;;;;5052514;28;20265;-73
2022/05/16 10:59:25;;;;;;;;;;;;;;;;;;5052112;28;19916;-71
2022/05/16 11:01:51;;;;;;;;;;;;;;;;;;5052414;28;19909;-73
2022/05/16 11:04:17;;;;;;;;;;;;;;;;;;5052512;28;20304;-72
2022/05/16 11:06:43;;;;;;;;;;;;;;;;;;5052479;28;19954;-74
2022/05/16 11:09:09;;;;;;;;;;;;;;;;;;5051939;28;19909;-69
2022/05/16 11:11:35;;;;;;;;;;;;;;;;;;5052520;28;19927;-71
2022/05/16 11:14:02;;;;;;;;;;;;;;;;;;5052293;28;20357;-68
2022/05/16 11:16:28;;;;;;;;;;;;;;;;;;5052302;28;19962;-70
2022/05/16 11:18:54;;;;;;;;;;;;;;;;;;5051726;28;20369;-72
2022/05/16 11:21:20;;;;;;;;;;;;;;;;;;5052293;28;19909;-72
2022/05/16 11:23:47;;;;;;;;;;;;;;;;;;5053404;28;19909;-70
2022/05/16 11:26:13;;;;;;;;;;;;;;;;;;5056546;28;19916;-69
2022/05/16 11:28:39;;;;;;;;;;;;;;;;;;5055890;28;19924;-68
2022/05/16 11:31:05;;;;;;;;;;;;;;;;;;5056124;28;19954;-71
2022/05/16 11:33:31;;;;;;;;;;;;;;;;;;5055950;28;20015;-70
2022/05/16 11:35:57;;;;;;;;;;;;;;;;;;5056099;28;19912;-69
2022/05/16 11:38:23;;;;;;;;;;;;;;;;;;5055676;28;19904;-72
2022/05/16 11:40:49;;;;;;;;;;;;;;;;;;5055712;28;19909;-69
2022/05/16 11:43:15;;;;;;;;;;;;;;;;;;5055916;28;20240;-69
2022/05/16 11:45:40;;;;;;;;;;;;;;;;;;5055874;28;19919;-70
2022/05/16 11:48:06;;;;;;;;;;;;;;;;;;5055735;28;19912;-69
2022/05/16 11:50:32;;;;;;;;;;;;;;;;;;5055352;28;19913;-71
2022/05/16 11:52:58;;;;;;;;;;;;;;;;;;5055610;28;19920;-69
2022/05/16 12:00:53;;;;;;;;;;;;;;;;;;5056787;28;19928;-72
2022/05/16 12:03:19;;;;;;;;;;;;;;;;;;5055598;28;20381;-69
2022/05/16 12:05:45;;;;;;;;;;;;;;;;;;5055396;28;19916;-70
2022/05/16 12:08:11;;;;;;;;;;;;;;;;;;5055403;28;19909;-71
2022/05/16 12:10:37;;;;;;;;;;;;;;;;;;5055050;28;20357;-71
2022/05/16 12:13:03;;;;;;;;;;;;;;;;;;5055330;28;20056;-69
2022/05/16 12:15:29;;;;;;;;;;;;;;;;;;5055295;28;20332;-68
2022/05/16 12:17:55;;;;;;;;;;;;;;;;;;5055275;28;19916;-69
2022/05/16 12:20:21;;;;;;;;;;;;;;;;;;5054861;28;20255;-70
2022/05/16 12:22:47;;;;;;;;;;;;;;;;;;5055051;28;19966;-68
2022/05/16 12:25:13;;;;;;;;;;;;;;;;;;5055198;28;19913;-72
2022/05/16 12:27:39;;;;;;;;;;;;;;;;;;5054915;28;19963;-69
2022/05/16 12:30:06;;;;;;;;;;;;;;;;;;5054631;28;19952;-71
2022/05/16 12:32:33;;;;;;;;;;;;;;;;;;5054834;28;20266;-70
2022/05/16 12:34:59;;;;;;;;;;;;;;;;;;5054549;28;19908;-69
2022/05/16 12:37:25;;;;;;;;;;;;;;;;;;5054900;28;20272;-70
2022/05/16 12:39:51;;;;;;;;;;;;;;;;;;5054391;28;20135;-71
2022/05/16 12:42:17;;;;;;;;;;;;;;;;;;5054873;28;19958;-69
2022/05/16 12:44:44;;;;;;;;;;;;;;;;;;5054731;28;20281;-70
2022/05/16 12:47:10;;;;;;;;;;;;;;;;;;5054737;28;19917;-70
2022/05/16 12:49:37;;;;;;;;;;;;;;;;;;5055513;28;19909;-68
2022/05/16 12:52:03;;;;;;;;;;;;;;;;;;5054553;28;20308;-71
2022/05/16 12:54:29;;;;;;;;;;;;;;;;;;5054580;28;20444;-70
2022/05/16 12:56:55;;;;;;;;;;;;;;;;;;5054552;28;19909;-70
2022/05/16 12:59:21;;;;;;;;;;;;;;;;;;5054091;28;19909;-70
2022/05/16 13:01:46;;;;;;;;;;;;;;;;;;5055568;28;19959;-68
2022/05/16 13:04:12;;;;;;;;;;;;;;;;;;5054479;28;20437;-68
2022/05/16 13:06:38;;;;;;;;;;;;;;;;;;5054366;28;19915;-72
2022/05/16 13:09:04;;;;;;;;;;;;;;;;;;5053811;28;19909;-70
2022/05/16 13:11:30;;;;;;;;;;;;;;;;;;5054200;28;19931;-72
2022/05/16 13:13:56;;;;;;;;;;;;;;;;;;5054323;28;19936;-72
2022/05/16 13:16:22;;;;;;;;;;;;;;;;;;5054651;28;20013;-72
2022/05/16 13:18:51;;;;;;;;;;;;;;;;;;5053922;28;19959;-70
2022/05/16 13:21:17;;;;;;;;;;;;;;;;;;5054394;28;19962;-72
2022/05/16 13:23:43;;;;;;;;;;;;;;;;;;5054167;28;20312;-73
2022/05/16 13:31:38;;;;;;;;;;;;;;;;;;5055540;28;19916;-70
2022/05/16 13:34:04;;;;;;;;;;;;;;;;;;5054123;28;19916;-69
2022/05/16 13:36:30;;;;;;;;;;;;;;;;;;5054110;28;20227;-71
2022/05/16 13:38:56;;;;;;;;;;;;;;;;;;5053577;28;19955;-68
2022/05/16 13:41:23;;;;;;;;;;;;;;;;;;5053982;28;19912;-68
2022/05/16 13:43:49;;;;;;;;;;;;;;;;;;5053793;28;19954;-69
2022/05/16 13:46:15;;;;;;;;;;;;;;;;;;5053120;28;19913;-69
2022/05/16 13:48:42;;;;;;;;;;;;;;;;;;5053317;28;19909;-68
2022/05/16 13:51:08;;;;;;;;;;;;;;;;;;5053783;28;19909;-69
2022/05/16 13:53:34;;;;;;;;;;;;;;;;;;5053577;28;19935;-70
2022/05/16 13:56:00;;;;;;;;;;;;;;;;;;5053680;28;20344;-69
2022/05/16 13:58:26;;;;;;;;;;;;;;;;;;5053262;28;19956;-70
2022/05/16 14:00:52;;;;;;;;;;;;;;;;;;5053544;28;19905;-70
2022/05/16 14:03:18;;;;;;;;;;;;;;;;;;5053641;28;19952;-70
2022/05/16 14:05:44;;;;;;;;;;;;;;;;;;5053298;28;20383;-71
2022/05/16 14:08:09;;;;;;;;;;;;;;;;;;5053087;28;19912;-69
2022/05/16 14:10:36;;;;;;;;;;;;;;;;;;5053004;28;20030;-69
2022/05/16 14:13:02;;;;;;;;;;;;;;;;;;5053358;28;19913;-69
2022/05/16 14:15:29;;;;;;;;;;;;;;;;;;5053342;28;19909;-69
2022/05/16 14:17:55;;;;;;;;;;;;;;;;;;5053299;28;20269;-69
2022/05/16 14:20:21;;;;;;;;;;;;;;;;;;5052815;28;19916;-70
2022/05/16 14:22:47;;;;;;;;;;;;;;;;;;5052581;28;19913;-70
2022/05/16 14:25:13;;;;;;;;;;;;;;;;;;5053301;28;19916;-69
2022/05/16 14:27:39;;;;;;;;;;;;;;;;;;5052789;28;20003;-70
2022/05/16 14:30:04;;;;;;;;;;;;;;;;;;5052720;28;19917;-70
2022/05/16 14:32:32;;;;;;;;;;;;;;;;;;5052369;28;21139;-69
2022/05/16 14:34:58;;;;;;;;;;;;;;;;;;5052937;28;19913;-69
2022/05/16 14:37:24;;;;;;;;;;;;;;;;;;5052966;28;19916;-69
2022/05/16 14:39:51;;;;;;;;;;;;;;;;;;5052344;28;20380;-71
2022/05/16 14:42:18;;;;;;;;;;;;;;;;;;5052961;28;19978;-69
2022/05/16 14:44:44;;;;;;;;;;;;;;;;;;5052801;28;19915;-71
2022/05/16 14:47:11;;;;;;;;;;;;;;;;;;5052910;28;19913;-71
2022/05/16 14:49:37;;;;;;;;;;;;;;;;;;5052231;28;20008;-70
2022/05/16 14:52:02;;;;;;;;;;;;;;;;;;5052612;28;20377;-72
2022/05/16 14:54:28;;;;;;;;;;;;;;;;;;5052682;28;19967;-71
2022/05/16 14:56:54;;;;;;;;;;;;;;;;;;5052689;28;19913;-70
2022/05/16 14:59:20;;;;;;;;;;;;;;;;;;5052257;28;20265;-70
2022/05/16 15:04:31;;;;;;;;;;;;;;;;;;5054062;28;19916;-70
2022/05/16 15:06:58;;;;;;;;;;;;;;;;;;5052438;28;20297;-68
2022/05/16 15:09:24;;;;;;;;;;;;;;;;;;5052038;28;19916;-70
2022/05/16 15:11:50;;;;;;;;;;;;;;;;;;5052444;28;19908;-67
2022/05/16 15:14:15;;;;;;;;;;;;;;;;;;5052544;28;19913;-70
2022/05/16 15:16:41;;;;;;;;;;;;;;;;;;5052379;28;19912;-70
2022/05/16 15:19:07;;;;;;;;;;;;;;;;;;5051851;28;19912;-68
2022/05/16 15:21:34;;;;;;;;;;;;;;;;;;5052243;28;19916;-68
2022/05/16 15:24:00;;;;;;;;;;;;;;;;;;5052031;28;19909;-70
2022/05/16 15:26:27;;;;;;;;;;;;;;;;;;5052348;28;19909;-70
2022/05/16 15:28:53;;;;;;;;;;;;;;;;;;5051614;28;19917;-68
2022/05/16 15:31:19;;;;;;;;;;;;;;;;;;5052253;28;20357;-68
2022/05/16 15:33:45;;;;;;;;;;;;;;;;;;5051947;28;19921;-70
2022/05/16 15:36:11;;;;;;;;;;;;;;;;;;5052174;28;20309;-69
2022/05/16 15:38:38;;;;;;;;;;;;;;;;;;5053120;28;19912;-69
2022/05/16 15:41:04;;;;;;;;;;;;;;;;;;5051938;28;19909;-70
2022/05/16 15:43:30;;;;;;;;;;;;;;;;;;5052078;28;20333;-69
2022/05/16 15:45:57;;;;;;;;;;;;;;;;;;5052035;28;20369;-71
2022/05/16 15:48:23;;;;;;;;;;;;;;;;;;5051800;28;20281;-68
2022/05/16 15:50:49;;;;;;;;;;;;;;;;;;5051739;28;19916;-71
2022/05/16 15:53:15;;;;;;;;;;;;;;;;;;5052041;28;19914;-71
2022/05/16 15:55:41;;;;;;;;;;;;;;;;;;5051799;28;19909;-69
2022/05/16 15:58:07;;;;;;;;;;;;;;;;;;5051785;28;19944;-71
2022/05/16 16:00:33;;;;;;;;;;;;;;;;;;5053052;28;19905;-71
2022/05/16 16:02:59;;;;;;;;;;;;;;;;;;5052079;28;19916;-70
2022/05/16 16:10:54;;;;;;;;;;;;;;;;;;5055855;28;19999;-70
2022/05/16 16:13:20;;;;;;;;;;;;;;;;;;5055538;28;20003;-69
2022/05/16 16:15:46;;;;;;;;;;;;;;;;;;5055525;28;19909;-70
2022/05/16 16:18:12;;;;;;;;;;;;;;;;;;5055478;28;19913;-70
2022/05/16 16:20:38;;;;;;;;;;;;;;;;;;5054830;28;19909;-69
2022/05/16 16:23:04;;;;;;;;;;;;;;;;;;5055224;28;19996;-70
2022/05/16 16:25:34;;;;;;;;;;;;;;;;;;5055202;28;19917;-69
2022/05/16 16:28:00;;;;;;;;;;;;;;;;;;5054842;28;19920;-69
2022/05/16 16:30:26;;;;;;;;;;;;;;;;;;5054683;28;19908;-69
2022/05/16 16:32:52;;;;;;;;;;;;;;;;;;5055074;28;19913;-69
2022/05/16 16:35:18;;;;;;;;;;;;;;;;;;5055300;28;20039;-72
2022/05/16 16:37:44;;;;;;;;;;;;;;;;;;5054655;28;20361;-70
2022/05/16 16:40:10;;;;;;;;;;;;;;;;;;5054640;28;19912;-70
2022/05/16 16:42:38;;;;;;;;;;;;;;;;;;5055075;28;19916;-71
2022/05/16 16:45:05;;;;;;;;;;;;;;;;;;5055030;28;19935;-71
2022/05/16 16:47:31;;;;;;;;;;;;;;;;;;5054755;28;20270;-70
2022/05/16 16:49:57;;;;;;;;;;;;;;;;;;5054305;28;19913;-70
2022/05/16 16:57:58;;;;;;;;;;;;;;;;;;5056044;28;19963;-71
2022/05/16 17:00:26;;;;;;;;;;;;;;;;;;5054334;28;19909;-69
2022/05/16 17:02:52;;;;;;;;;;;;;;;;;;5054662;28;19913;-72
2022/05/16 17:05:18;;;;;;;;;;;;;;;;;;5054646;28;19944;-72
2022/05/16 17:07:44;;;;;;;;;;;;;;;;;;5054495;28;19916;-73
2022/05/16 17:10:11;;;;;;;;;;;;;;;;;;5053924;28;19939;-73
2022/05/16 17:12:37;;;;;;;;;;;;;;;;;;5054400;28;20475;-72
2022/05/16 17:15:04;;;;;;;;;;;;;;;;;;5054411;28;19962;-67
2022/05/16 17:17:30;;;;;;;;;;;;;;;;;;5054437;28;19935;-67
2022/05/16 17:19:56;;;;;;;;;;;;;;;;;;5053987;28;19909;-69
2022/05/16 17:22:21;;;;;;;;;;;;;;;;;;5053239;28;19979;-68
2022/05/16 17:24:48;;;;;;;;;;;;;;;;;;5054083;28;19909;-67
2022/05/16 17:27:14;;;;;;;;;;;;;;;;;;5054292;28;20051;-66
2022/05/16 17:29:40;;;;;;;;;;;;;;;;;;5053708;28;19979;-66
2022/05/16 17:32:07;;;;;;;;;;;;;;;;;;5054147;28;19909;-66